sensor_id;sensor_type;location;lat;lon;timestamp;P1;durP1;ratioP1;P2;durP2;ratioP2
49177;SDS011;35016;55.674;37.468;2023-04-24T00:01:27;14.93;;;7.78;;
49177;SDS011;35016;55.674;37.468;2023-04-24T00:03:56;12.93;;;7.93;;
49177;SDS011;35016;55.674;37.468;2023-04-24T00:06:26;10.45;;;6.72;;
49177;SDS011;35016;55.674;37.468;2023-04-24T00:09:03;10.77;;;6.70;;
49177;SDS011;35016;55.674;37.468;2023-04-24T00:11:31;11.63;;;7.15;;
49177;SDS011;35016;55.674;37.468;2023-04-24T00:13:58;13.32;;;6.40;;
49177;SDS011;35016;55.674;37.468;2023-04-24T00:16:25;14.60;;;6.75;;
49177;SDS011;35016;55.674;37.468;2023-04-24T00:18:52;13.90;;;7.15;;
49177;SDS011;35016;55.674;37.468;2023-04-24T00:21:20;11.57;;;6.65;;
49177;SDS011;35016;55.674;37.468;2023-04-24T00:23:48;9.88;;;5.80;;
49177;SDS011;35016;55.674;37.468;2023-04-24T00:26:15;12.07;;;7.03;;
49177;SDS011;35016;55.674;37.468;2023-04-24T00:28:41;13.55;;;7.20;;
49177;SDS011;35016;55.674;37.468;2023-04-24T00:31:09;11.13;;;6.63;;
49177;SDS011;35016;55.674;37.468;2023-04-24T00:33:36;13.23;;;6.85;;
49177;SDS011;35016;55.674;37.468;2023-04-24T00:36:03;13.13;;;6.53;;
49177;SDS011;35016;55.674;37.468;2023-04-24T00:38:30;10.50;;;6.57;;
49177;SDS011;35016;55.674;37.468;2023-04-24T00:40:57;12.60;;;7.80;;
49177;SDS011;35016;55.674;37.468;2023-04-24T00:43:25;12.07;;;6.88;;
49177;SDS011;35016;55.674;37.468;2023-04-24T00:45:52;12.05;;;7.00;;
49177;SDS011;35016;55.674;37.468;2023-04-24T00:48:20;13.52;;;7.45;;
49177;SDS011;35016;55.674;37.468;2023-04-24T00:50:48;10.65;;;7.15;;
49177;SDS011;35016;55.674;37.468;2023-04-24T00:53:15;12.45;;;7.35;;
49177;SDS011;35016;55.674;37.468;2023-04-24T00:55:42;11.88;;;7.75;;
49177;SDS011;35016;55.674;37.468;2023-04-24T00:58:09;11.85;;;6.88;;
49177;SDS011;35016;55.674;37.468;2023-04-24T01:00:37;12.43;;;6.68;;
49177;SDS011;35016;55.674;37.468;2023-04-24T01:03:04;13.32;;;7.57;;
49177;SDS011;35016;55.674;37.468;2023-04-24T01:05:32;10.65;;;6.65;;
49177;SDS011;35016;55.674;37.468;2023-04-24T01:08:00;12.82;;;7.68;;
49177;SDS011;35016;55.674;37.468;2023-04-24T01:10:29;11.82;;;7.43;;
49177;SDS011;35016;55.674;37.468;2023-04-24T01:12:59;14.88;;;7.22;;
49177;SDS011;35016;55.674;37.468;2023-04-24T01:15:26;12.27;;;7.57;;
49177;SDS011;35016;55.674;37.468;2023-04-24T01:17:53;11.65;;;7.13;;
49177;SDS011;35016;55.674;37.468;2023-04-24T01:20:20;12.57;;;7.65;;
49177;SDS011;35016;55.674;37.468;2023-04-24T01:22:48;12.73;;;7.63;;
49177;SDS011;35016;55.674;37.468;2023-04-24T01:25:15;11.43;;;7.20;;
49177;SDS011;35016;55.674;37.468;2023-04-24T01:27:42;12.15;;;7.85;;
49177;SDS011;35016;55.674;37.468;2023-04-24T01:30:10;12.23;;;7.72;;
49177;SDS011;35016;55.674;37.468;2023-04-24T01:32:38;12.90;;;7.95;;
49177;SDS011;35016;55.674;37.468;2023-04-24T01:35:07;14.77;;;7.88;;
49177;SDS011;35016;55.674;37.468;2023-04-24T01:37:34;12.73;;;9.32;;
49177;SDS011;35016;55.674;37.468;2023-04-24T01:40:04;11.93;;;7.57;;
49177;SDS011;35016;55.674;37.468;2023-04-24T01:42:34;12.15;;;8.15;;
49177;SDS011;35016;55.674;37.468;2023-04-24T01:45:02;11.27;;;7.53;;
49177;SDS011;35016;55.674;37.468;2023-04-24T01:47:31;13.52;;;8.40;;
49177;SDS011;35016;55.674;37.468;2023-04-24T01:49:58;11.77;;;8.77;;
49177;SDS011;35016;55.674;37.468;2023-04-24T01:52:26;12.30;;;8.77;;
49177;SDS011;35016;55.674;37.468;2023-04-24T01:54:54;11.43;;;8.15;;
49177;SDS011;35016;55.674;37.468;2023-04-24T01:57:22;16.50;;;7.60;;
49177;SDS011;35016;55.674;37.468;2023-04-24T01:59:50;13.15;;;8.25;;
49177;SDS011;35016;55.674;37.468;2023-04-24T02:02:18;12.23;;;8.05;;
49177;SDS011;35016;55.674;37.468;2023-04-24T02:04:45;12.60;;;8.77;;
49177;SDS011;35016;55.674;37.468;2023-04-24T02:07:12;12.30;;;8.52;;
49177;SDS011;35016;55.674;37.468;2023-04-24T02:09:39;11.90;;;7.70;;
49177;SDS011;35016;55.674;37.468;2023-04-24T02:12:06;12.13;;;7.72;;
49177;SDS011;35016;55.674;37.468;2023-04-24T02:14:33;12.38;;;8.13;;
49177;SDS011;35016;55.674;37.468;2023-04-24T02:17:02;13.55;;;9.10;;
49177;SDS011;35016;55.674;37.468;2023-04-24T02:19:29;15.77;;;8.90;;
49177;SDS011;35016;55.674;37.468;2023-04-24T02:21:56;12.90;;;8.13;;
49177;SDS011;35016;55.674;37.468;2023-04-24T02:24:23;11.40;;;8.10;;
49177;SDS011;35016;55.674;37.468;2023-04-24T02:26:50;12.57;;;7.70;;
49177;SDS011;35016;55.674;37.468;2023-04-24T02:29:17;14.13;;;8.65;;
49177;SDS011;35016;55.674;37.468;2023-04-24T02:31:44;12.82;;;8.43;;
49177;SDS011;35016;55.674;37.468;2023-04-24T02:34:13;13.00;;;8.02;;
49177;SDS011;35016;55.674;37.468;2023-04-24T02:36:41;11.60;;;8.10;;
49177;SDS011;35016;55.674;37.468;2023-04-24T02:39:08;11.57;;;7.63;;
49177;SDS011;35016;55.674;37.468;2023-04-24T02:41:35;13.10;;;8.45;;
49177;SDS011;35016;55.674;37.468;2023-04-24T02:44:02;15.70;;;7.72;;
49177;SDS011;35016;55.674;37.468;2023-04-24T02:46:29;13.45;;;8.38;;
49177;SDS011;35016;55.674;37.468;2023-04-24T02:48:56;13.85;;;9.20;;
49177;SDS011;35016;55.674;37.468;2023-04-24T02:51:23;14.02;;;7.63;;
49177;SDS011;35016;55.674;37.468;2023-04-24T02:53:50;13.48;;;7.72;;
49177;SDS011;35016;55.674;37.468;2023-04-24T02:56:17;12.30;;;7.38;;
49177;SDS011;35016;55.674;37.468;2023-04-24T02:58:44;14.88;;;8.27;;
49177;SDS011;35016;55.674;37.468;2023-04-24T03:01:12;11.55;;;7.72;;
49177;SDS011;35016;55.674;37.468;2023-04-24T03:03:39;12.00;;;7.57;;
49177;SDS011;35016;55.674;37.468;2023-04-24T03:06:06;11.10;;;7.03;;
49177;SDS011;35016;55.674;37.468;2023-04-24T03:08:35;12.60;;;7.00;;
49177;SDS011;35016;55.674;37.468;2023-04-24T03:11:02;12.20;;;8.38;;
49177;SDS011;35016;55.674;37.468;2023-04-24T03:13:29;13.65;;;9.13;;
49177;SDS011;35016;55.674;37.468;2023-04-24T03:15:57;14.68;;;9.27;;
49177;SDS011;35016;55.674;37.468;2023-04-24T03:18:24;13.43;;;8.50;;
49177;SDS011;35016;55.674;37.468;2023-04-24T03:20:52;12.63;;;8.00;;
49177;SDS011;35016;55.674;37.468;2023-04-24T03:23:19;12.73;;;8.10;;
49177;SDS011;35016;55.674;37.468;2023-04-24T03:25:46;11.30;;;7.63;;
49177;SDS011;35016;55.674;37.468;2023-04-24T03:28:15;11.80;;;8.05;;
49177;SDS011;35016;55.674;37.468;2023-04-24T03:30:47;16.63;;;7.45;;
49177;SDS011;35016;55.674;37.468;2023-04-24T03:33:16;11.65;;;8.13;;
49177;SDS011;35016;55.674;37.468;2023-04-24T03:35:53;11.38;;;7.65;;
49177;SDS011;35016;55.674;37.468;2023-04-24T03:38:21;15.82;;;8.07;;
49177;SDS011;35016;55.674;37.468;2023-04-24T03:41:00;13.60;;;7.53;;
49177;SDS011;35016;55.674;37.468;2023-04-24T03:43:53;12.63;;;6.75;;
49177;SDS011;35016;55.674;37.468;2023-04-24T03:46:20;11.75;;;7.68;;
49177;SDS011;35016;55.674;37.468;2023-04-24T03:48:53;15.35;;;9.05;;
49177;SDS011;35016;55.674;37.468;2023-04-24T03:51:25;10.70;;;7.60;;
49177;SDS011;35016;55.674;37.468;2023-04-24T03:53:59;13.82;;;7.93;;
49177;SDS011;35016;55.674;37.468;2023-04-24T03:56:29;13.45;;;9.05;;
49177;SDS011;35016;55.674;37.468;2023-04-24T03:58:56;14.95;;;8.43;;
49177;SDS011;35016;55.674;37.468;2023-04-24T04:01:23;16.02;;;9.43;;
49177;SDS011;35016;55.674;37.468;2023-04-24T04:03:57;14.02;;;7.25;;
49177;SDS011;35016;55.674;37.468;2023-04-24T04:06:26;13.85;;;8.63;;
49177;SDS011;35016;55.674;37.468;2023-04-24T04:08:54;16.75;;;8.93;;
49177;SDS011;35016;55.674;37.468;2023-04-24T04:11:21;13.00;;;8.23;;
49177;SDS011;35016;55.674;37.468;2023-04-24T04:13:49;14.20;;;8.98;;
49177;SDS011;35016;55.674;37.468;2023-04-24T04:16:19;12.07;;;8.68;;
49177;SDS011;35016;55.674;37.468;2023-04-24T04:18:49;12.60;;;9.15;;
49177;SDS011;35016;55.674;37.468;2023-04-24T04:21:17;12.18;;;7.30;;
49177;SDS011;35016;55.674;37.468;2023-04-24T04:23:44;13.57;;;8.10;;
49177;SDS011;35016;55.674;37.468;2023-04-24T04:26:16;15.02;;;8.68;;
49177;SDS011;35016;55.674;37.468;2023-04-24T04:29:13;15.15;;;8.57;;
49177;SDS011;35016;55.674;37.468;2023-04-24T04:31:44;14.07;;;8.23;;
49177;SDS011;35016;55.674;37.468;2023-04-24T04:34:12;12.18;;;8.52;;
49177;SDS011;35016;55.674;37.468;2023-04-24T04:36:42;10.65;;;7.95;;
49177;SDS011;35016;55.674;37.468;2023-04-24T04:39:27;14.45;;;8.63;;
49177;SDS011;35016;55.674;37.468;2023-04-24T04:42:01;13.68;;;9.10;;
49177;SDS011;35016;55.674;37.468;2023-04-24T04:44:35;11.80;;;7.53;;
49177;SDS011;35016;55.674;37.468;2023-04-24T04:47:04;14.73;;;9.82;;
49177;SDS011;35016;55.674;37.468;2023-04-24T04:49:34;12.32;;;7.85;;
49177;SDS011;35016;55.674;37.468;2023-04-24T04:52:03;14.05;;;8.43;;
49177;SDS011;35016;55.674;37.468;2023-04-24T04:54:30;15.25;;;8.98;;
49177;SDS011;35016;55.674;37.468;2023-04-24T04:56:57;13.85;;;8.63;;
49177;SDS011;35016;55.674;37.468;2023-04-24T04:59:25;12.55;;;7.55;;
49177;SDS011;35016;55.674;37.468;2023-04-24T05:02:00;13.02;;;7.47;;
49177;SDS011;35016;55.674;37.468;2023-04-24T05:04:27;11.23;;;8.27;;
49177;SDS011;35016;55.674;37.468;2023-04-24T05:06:55;11.57;;;7.28;;
49177;SDS011;35016;55.674;37.468;2023-04-24T05:09:24;13.63;;;8.75;;
49177;SDS011;35016;55.674;37.468;2023-04-24T05:11:58;13.20;;;8.27;;
49177;SDS011;35016;55.674;37.468;2023-04-24T05:14:26;13.65;;;8.18;;
49177;SDS011;35016;55.674;37.468;2023-04-24T05:16:53;14.55;;;7.85;;
49177;SDS011;35016;55.674;37.468;2023-04-24T05:19:23;14.48;;;8.98;;
49177;SDS011;35016;55.674;37.468;2023-04-24T05:21:50;12.48;;;8.65;;
49177;SDS011;35016;55.674;37.468;2023-04-24T05:24:17;12.95;;;9.48;;
49177;SDS011;35016;55.674;37.468;2023-04-24T05:26:44;14.32;;;9.52;;
49177;SDS011;35016;55.674;37.468;2023-04-24T05:29:14;14.27;;;8.13;;
49177;SDS011;35016;55.674;37.468;2023-04-24T05:31:42;13.98;;;8.95;;
49177;SDS011;35016;55.674;37.468;2023-04-24T05:34:09;13.57;;;8.88;;
49177;SDS011;35016;55.674;37.468;2023-04-24T05:36:40;15.10;;;8.10;;
49177;SDS011;35016;55.674;37.468;2023-04-24T05:39:08;15.00;;;7.93;;
49177;SDS011;35016;55.674;37.468;2023-04-24T05:41:35;10.65;;;7.38;;
49177;SDS011;35016;55.674;37.468;2023-04-24T05:44:02;16.55;;;8.18;;
49177;SDS011;35016;55.674;37.468;2023-04-24T05:46:29;14.80;;;7.75;;
49177;SDS011;35016;55.674;37.468;2023-04-24T05:48:57;12.02;;;7.65;;
49177;SDS011;35016;55.674;37.468;2023-04-24T05:51:24;12.38;;;7.63;;
49177;SDS011;35016;55.674;37.468;2023-04-24T05:53:52;11.20;;;7.32;;
49177;SDS011;35016;55.674;37.468;2023-04-24T05:56:19;12.07;;;7.20;;
49177;SDS011;35016;55.674;37.468;2023-04-24T05:58:48;11.25;;;7.35;;
49177;SDS011;35016;55.674;37.468;2023-04-24T06:01:15;14.55;;;7.47;;
49177;SDS011;35016;55.674;37.468;2023-04-24T06:03:46;12.45;;;7.20;;
49177;SDS011;35016;55.674;37.468;2023-04-24T06:06:13;15.48;;;6.97;;
49177;SDS011;35016;55.674;37.468;2023-04-24T06:08:42;10.63;;;6.80;;
49177;SDS011;35016;55.674;37.468;2023-04-24T06:11:11;12.02;;;6.85;;
49177;SDS011;35016;55.674;37.468;2023-04-24T06:13:38;12.07;;;6.85;;
49177;SDS011;35016;55.674;37.468;2023-04-24T06:16:35;12.48;;;6.55;;
49177;SDS011;35016;55.674;37.468;2023-04-24T06:19:13;9.82;;;5.75;;
49177;SDS011;35016;55.674;37.468;2023-04-24T06:21:41;12.55;;;7.65;;
49177;SDS011;35016;55.674;37.468;2023-04-24T06:24:08;13.77;;;7.97;;
49177;SDS011;35016;55.674;37.468;2023-04-24T06:26:36;13.95;;;7.65;;
49177;SDS011;35016;55.674;37.468;2023-04-24T06:29:03;11.30;;;7.30;;
49177;SDS011;35016;55.674;37.468;2023-04-24T06:31:30;11.18;;;6.38;;
49177;SDS011;35016;55.674;37.468;2023-04-24T06:34:01;13.00;;;7.13;;
49177;SDS011;35016;55.674;37.468;2023-04-24T06:36:28;14.38;;;7.53;;
49177;SDS011;35016;55.674;37.468;2023-04-24T06:38:57;12.43;;;7.38;;
49177;SDS011;35016;55.674;37.468;2023-04-24T06:41:24;10.10;;;5.70;;
49177;SDS011;35016;55.674;37.468;2023-04-24T06:43:52;11.88;;;7.35;;
49177;SDS011;35016;55.674;37.468;2023-04-24T06:46:19;13.88;;;7.30;;
49177;SDS011;35016;55.674;37.468;2023-04-24T06:48:49;18.85;;;7.50;;
49177;SDS011;35016;55.674;37.468;2023-04-24T06:51:17;11.45;;;6.55;;
49177;SDS011;35016;55.674;37.468;2023-04-24T06:53:44;14.38;;;6.93;;
49177;SDS011;35016;55.674;37.468;2023-04-24T06:56:14;12.07;;;5.78;;
49177;SDS011;35016;55.674;37.468;2023-04-24T06:58:43;12.52;;;6.75;;
49177;SDS011;35016;55.674;37.468;2023-04-24T07:01:11;11.07;;;7.10;;
49177;SDS011;35016;55.674;37.468;2023-04-24T07:03:40;9.73;;;6.10;;
49177;SDS011;35016;55.674;37.468;2023-04-24T07:06:07;12.77;;;6.70;;
49177;SDS011;35016;55.674;37.468;2023-04-24T07:08:37;11.15;;;6.57;;
49177;SDS011;35016;55.674;37.468;2023-04-24T07:11:05;14.00;;;7.32;;
49177;SDS011;35016;55.674;37.468;2023-04-24T07:13:34;11.32;;;5.53;;
49177;SDS011;35016;55.674;37.468;2023-04-24T07:16:02;14.20;;;7.80;;
49177;SDS011;35016;55.674;37.468;2023-04-24T07:18:29;16.00;;;6.85;;
49177;SDS011;35016;55.674;37.468;2023-04-24T07:20:57;13.07;;;7.13;;
49177;SDS011;35016;55.674;37.468;2023-04-24T07:23:24;12.43;;;5.97;;
49177;SDS011;35016;55.674;37.468;2023-04-24T07:25:54;12.02;;;5.72;;
49177;SDS011;35016;55.674;37.468;2023-04-24T07:28:23;11.73;;;5.93;;
49177;SDS011;35016;55.674;37.468;2023-04-24T07:30:53;14.15;;;6.65;;
49177;SDS011;35016;55.674;37.468;2023-04-24T07:33:21;13.02;;;6.75;;
49177;SDS011;35016;55.674;37.468;2023-04-24T07:35:48;13.23;;;6.38;;
49177;SDS011;35016;55.674;37.468;2023-04-24T07:38:15;10.75;;;5.22;;
49177;SDS011;35016;55.674;37.468;2023-04-24T07:40:42;9.05;;;5.15;;
49177;SDS011;35016;55.674;37.468;2023-04-24T07:43:11;9.15;;;4.72;;
49177;SDS011;35016;55.674;37.468;2023-04-24T07:45:38;15.55;;;5.68;;
49177;SDS011;35016;55.674;37.468;2023-04-24T07:48:06;10.80;;;4.65;;
49177;SDS011;35016;55.674;37.468;2023-04-24T07:50:35;10.20;;;5.35;;
49177;SDS011;35016;55.674;37.468;2023-04-24T07:53:03;10.27;;;4.25;;
49177;SDS011;35016;55.674;37.468;2023-04-24T07:55:30;11.98;;;5.72;;
49177;SDS011;35016;55.674;37.468;2023-04-24T07:57:57;9.43;;;5.68;;
49177;SDS011;35016;55.674;37.468;2023-04-24T08:00:24;8.38;;;4.32;;
49177;SDS011;35016;55.674;37.468;2023-04-24T08:02:51;8.95;;;5.05;;
49177;SDS011;35016;55.674;37.468;2023-04-24T08:05:18;9.85;;;5.35;;
49177;SDS011;35016;55.674;37.468;2023-04-24T08:07:46;10.20;;;5.18;;
49177;SDS011;35016;55.674;37.468;2023-04-24T08:10:15;9.60;;;5.47;;
49177;SDS011;35016;55.674;37.468;2023-04-24T08:12:42;10.65;;;5.45;;
49177;SDS011;35016;55.674;37.468;2023-04-24T08:15:09;9.85;;;5.68;;
49177;SDS011;35016;55.674;37.468;2023-04-24T08:17:37;10.27;;;4.53;;
49177;SDS011;35016;55.674;37.468;2023-04-24T08:20:04;10.07;;;5.05;;
49177;SDS011;35016;55.674;37.468;2023-04-24T08:22:32;8.90;;;3.83;;
49177;SDS011;35016;55.674;37.468;2023-04-24T08:24:59;9.65;;;4.40;;
49177;SDS011;35016;55.674;37.468;2023-04-24T08:27:28;10.15;;;5.45;;
49177;SDS011;35016;55.674;37.468;2023-04-24T08:29:56;9.98;;;4.97;;
49177;SDS011;35016;55.674;37.468;2023-04-24T08:32:24;8.27;;;4.53;;
49177;SDS011;35016;55.674;37.468;2023-04-24T08:34:51;9.23;;;5.13;;
49177;SDS011;35016;55.674;37.468;2023-04-24T08:37:19;11.15;;;4.57;;
49177;SDS011;35016;55.674;37.468;2023-04-24T08:39:47;9.48;;;4.97;;
49177;SDS011;35016;55.674;37.468;2023-04-24T08:42:14;10.00;;;4.95;;
49177;SDS011;35016;55.674;37.468;2023-04-24T08:44:42;10.35;;;5.05;;
49177;SDS011;35016;55.674;37.468;2023-04-24T08:47:10;10.88;;;5.00;;
49177;SDS011;35016;55.674;37.468;2023-04-24T08:49:41;9.23;;;5.18;;
49177;SDS011;35016;55.674;37.468;2023-04-24T08:52:09;9.23;;;5.05;;
49177;SDS011;35016;55.674;37.468;2023-04-24T08:54:36;11.02;;;4.40;;
49177;SDS011;35016;55.674;37.468;2023-04-24T08:57:05;11.68;;;5.60;;
49177;SDS011;35016;55.674;37.468;2023-04-24T08:59:34;9.57;;;4.32;;
49177;SDS011;35016;55.674;37.468;2023-04-24T09:02:01;9.68;;;4.82;;
49177;SDS011;35016;55.674;37.468;2023-04-24T09:04:31;9.48;;;4.40;;
49177;SDS011;35016;55.674;37.468;2023-04-24T09:07:01;9.48;;;5.22;;
49177;SDS011;35016;55.674;37.468;2023-04-24T09:09:30;9.02;;;3.83;;
49177;SDS011;35016;55.674;37.468;2023-04-24T09:11:59;9.45;;;5.28;;
49177;SDS011;35016;55.674;37.468;2023-04-24T09:14:27;8.48;;;3.95;;
49177;SDS011;35016;55.674;37.468;2023-04-24T09:16:54;9.80;;;4.80;;
49177;SDS011;35016;55.674;37.468;2023-04-24T09:19:21;8.93;;;4.47;;
49177;SDS011;35016;55.674;37.468;2023-04-24T09:21:48;10.10;;;5.43;;
49177;SDS011;35016;55.674;37.468;2023-04-24T09:24:17;9.43;;;4.50;;
49177;SDS011;35016;55.674;37.468;2023-04-24T09:26:55;8.93;;;4.47;;
49177;SDS011;35016;55.674;37.468;2023-04-24T09:29:25;9.60;;;4.55;;
49177;SDS011;35016;55.674;37.468;2023-04-24T09:31:52;9.65;;;4.90;;
49177;SDS011;35016;55.674;37.468;2023-04-24T09:34:22;10.73;;;5.63;;
49177;SDS011;35016;55.674;37.468;2023-04-24T09:36:50;9.85;;;4.40;;
49177;SDS011;35016;55.674;37.468;2023-04-24T09:39:18;9.13;;;5.07;;
49177;SDS011;35016;55.674;37.468;2023-04-24T09:41:49;10.40;;;4.53;;
49177;SDS011;35016;55.674;37.468;2023-04-24T09:44:18;10.65;;;4.72;;
49177;SDS011;35016;55.674;37.468;2023-04-24T09:52:03;7.95;;;3.78;;
49177;SDS011;35016;55.674;37.468;2023-04-24T09:54:32;8.98;;;4.50;;
49177;SDS011;35016;55.674;37.468;2023-04-24T09:56:59;8.70;;;4.32;;
49177;SDS011;35016;55.674;37.468;2023-04-24T09:59:27;8.93;;;4.28;;
49177;SDS011;35016;55.674;37.468;2023-04-24T10:01:54;9.82;;;4.28;;
49177;SDS011;35016;55.674;37.468;2023-04-24T10:04:25;9.93;;;4.93;;
49177;SDS011;35016;55.674;37.468;2023-04-24T10:06:54;9.07;;;4.40;;
49177;SDS011;35016;55.674;37.468;2023-04-24T10:09:23;9.73;;;5.13;;
49177;SDS011;35016;55.674;37.468;2023-04-24T10:11:52;9.13;;;4.03;;
49177;SDS011;35016;55.674;37.468;2023-04-24T10:14:21;8.98;;;4.25;;
49177;SDS011;35016;55.674;37.468;2023-04-24T10:16:49;9.30;;;4.90;;
49177;SDS011;35016;55.674;37.468;2023-04-24T10:19:19;10.00;;;4.47;;
49177;SDS011;35016;55.674;37.468;2023-04-24T10:21:46;9.23;;;4.60;;
49177;SDS011;35016;55.674;37.468;2023-04-24T10:24:14;8.35;;;4.20;;
49177;SDS011;35016;55.674;37.468;2023-04-24T10:26:43;13.90;;;4.10;;
49177;SDS011;35016;55.674;37.468;2023-04-24T10:29:12;10.30;;;5.05;;
49177;SDS011;35016;55.674;37.468;2023-04-24T10:31:42;8.98;;;4.40;;
49177;SDS011;35016;55.674;37.468;2023-04-24T10:34:12;10.27;;;4.20;;
49177;SDS011;35016;55.674;37.468;2023-04-24T10:36:42;9.63;;;4.70;;
49177;SDS011;35016;55.674;37.468;2023-04-24T10:39:21;10.32;;;5.13;;
49177;SDS011;35016;55.674;37.468;2023-04-24T10:41:53;9.33;;;4.47;;
49177;SDS011;35016;55.674;37.468;2023-04-24T10:44:24;10.48;;;4.22;;
49177;SDS011;35016;55.674;37.468;2023-04-24T10:46:55;8.95;;;4.93;;
49177;SDS011;35016;55.674;37.468;2023-04-24T10:49:29;9.10;;;4.80;;
49177;SDS011;35016;55.674;37.468;2023-04-24T10:52:01;9.13;;;4.88;;
49177;SDS011;35016;55.674;37.468;2023-04-24T10:54:42;11.65;;;4.55;;
49177;SDS011;35016;55.674;37.468;2023-04-24T10:59:49;9.25;;;4.57;;
49177;SDS011;35016;55.674;37.468;2023-04-24T11:02:19;11.43;;;5.18;;
49177;SDS011;35016;55.674;37.468;2023-04-24T11:05:03;9.18;;;5.15;;
49177;SDS011;35016;55.674;37.468;2023-04-24T11:08:09;8.63;;;4.43;;
49177;SDS011;35016;55.674;37.468;2023-04-24T11:10:46;8.65;;;3.97;;
49177;SDS011;35016;55.674;37.468;2023-04-24T11:13:21;8.98;;;4.57;;
49177;SDS011;35016;55.674;37.468;2023-04-24T11:18:43;8.40;;;4.03;;
49177;SDS011;35016;55.674;37.468;2023-04-24T11:21:17;8.60;;;3.83;;
49177;SDS011;35016;55.674;37.468;2023-04-24T11:23:45;10.30;;;5.07;;
49177;SDS011;35016;55.674;37.468;2023-04-24T11:26:13;8.90;;;4.43;;
49177;SDS011;35016;55.674;37.468;2023-04-24T11:28:46;7.85;;;3.97;;
49177;SDS011;35016;55.674;37.468;2023-04-24T11:34:12;9.85;;;4.68;;
49177;SDS011;35016;55.674;37.468;2023-04-24T11:36:46;9.27;;;4.67;;
49177;SDS011;35016;55.674;37.468;2023-04-24T11:39:15;10.23;;;4.97;;
49177;SDS011;35016;55.674;37.468;2023-04-24T11:41:42;9.07;;;4.32;;
49177;SDS011;35016;55.674;37.468;2023-04-24T11:44:13;11.15;;;4.68;;
49177;SDS011;35016;55.674;37.468;2023-04-24T11:46:45;9.43;;;4.68;;
49177;SDS011;35016;55.674;37.468;2023-04-24T11:49:12;11.07;;;4.35;;
49177;SDS011;35016;55.674;37.468;2023-04-24T11:51:42;8.65;;;4.07;;
49177;SDS011;35016;55.674;37.468;2023-04-24T11:54:19;9.90;;;4.55;;
49177;SDS011;35016;55.674;37.468;2023-04-24T11:56:46;8.23;;;4.20;;
49177;SDS011;35016;55.674;37.468;2023-04-24T11:59:16;9.85;;;4.25;;
49177;SDS011;35016;55.674;37.468;2023-04-24T12:01:48;9.63;;;4.50;;
49177;SDS011;35016;55.674;37.468;2023-04-24T12:04:17;8.45;;;3.90;;
49177;SDS011;35016;55.674;37.468;2023-04-24T12:07:02;6.90;;;3.28;;
49177;SDS011;35016;55.674;37.468;2023-04-24T12:09:47;8.88;;;4.10;;
49177;SDS011;35016;55.674;37.468;2023-04-24T12:12:23;9.80;;;4.00;;
49177;SDS011;35016;55.674;37.468;2023-04-24T12:14:52;8.57;;;3.92;;
49177;SDS011;35016;55.674;37.468;2023-04-24T12:17:29;11.18;;;4.50;;
49177;SDS011;35016;55.674;37.468;2023-04-24T12:20:00;8.65;;;3.83;;
49177;SDS011;35016;55.674;37.468;2023-04-24T12:22:49;9.70;;;4.35;;
49177;SDS011;35016;55.674;37.468;2023-04-24T12:25:18;9.18;;;4.60;;
49177;SDS011;35016;55.674;37.468;2023-04-24T12:27:46;8.23;;;4.05;;
49177;SDS011;35016;55.674;37.468;2023-04-24T12:30:18;7.72;;;3.45;;
49177;SDS011;35016;55.674;37.468;2023-04-24T12:32:46;9.73;;;3.90;;
49177;SDS011;35016;55.674;37.468;2023-04-24T12:35:21;7.95;;;3.63;;
49177;SDS011;35016;55.674;37.468;2023-04-24T12:37:50;8.82;;;3.75;;
49177;SDS011;35016;55.674;37.468;2023-04-24T12:40:17;9.30;;;3.90;;
49177;SDS011;35016;55.674;37.468;2023-04-24T12:42:47;7.95;;;3.50;;
49177;SDS011;35016;55.674;37.468;2023-04-24T12:45:16;9.00;;;4.25;;
49177;SDS011;35016;55.674;37.468;2023-04-24T12:47:45;8.98;;;4.10;;
49177;SDS011;35016;55.674;37.468;2023-04-24T12:50:13;7.50;;;3.53;;
49177;SDS011;35016;55.674;37.468;2023-04-24T12:52:42;8.05;;;4.30;;
49177;SDS011;35016;55.674;37.468;2023-04-24T12:55:10;8.50;;;4.68;;
49177;SDS011;35016;55.674;37.468;2023-04-24T12:57:38;8.23;;;3.90;;
49177;SDS011;35016;55.674;37.468;2023-04-24T13:00:07;8.63;;;4.13;;
49177;SDS011;35016;55.674;37.468;2023-04-24T13:02:35;9.57;;;3.92;;
49177;SDS011;35016;55.674;37.468;2023-04-24T13:05:03;8.50;;;3.70;;
49177;SDS011;35016;55.674;37.468;2023-04-24T13:07:31;7.70;;;3.88;;
49177;SDS011;35016;55.674;37.468;2023-04-24T13:09:58;8.25;;;4.32;;
49177;SDS011;35016;55.674;37.468;2023-04-24T13:12:25;7.53;;;4.28;;
49177;SDS011;35016;55.674;37.468;2023-04-24T13:14:53;11.63;;;4.07;;
49177;SDS011;35016;55.674;37.468;2023-04-24T13:17:21;7.90;;;3.83;;
49177;SDS011;35016;55.674;37.468;2023-04-24T13:19:49;7.47;;;3.55;;
49177;SDS011;35016;55.674;37.468;2023-04-24T13:22:17;8.85;;;4.40;;
49177;SDS011;35016;55.674;37.468;2023-04-24T13:24:47;10.32;;;4.35;;
49177;SDS011;35016;55.674;37.468;2023-04-24T13:27:17;9.48;;;4.50;;
49177;SDS011;35016;55.674;37.468;2023-04-24T13:29:45;8.65;;;3.97;;
49177;SDS011;35016;55.674;37.468;2023-04-24T13:32:12;7.88;;;3.80;;
49177;SDS011;35016;55.674;37.468;2023-04-24T13:34:39;12.27;;;4.88;;
49177;SDS011;35016;55.674;37.468;2023-04-24T13:37:06;9.20;;;4.32;;
49177;SDS011;35016;55.674;37.468;2023-04-24T13:39:34;9.35;;;4.75;;
49177;SDS011;35016;55.674;37.468;2023-04-24T13:42:02;9.80;;;3.58;;
49177;SDS011;35016;55.674;37.468;2023-04-24T13:44:30;10.73;;;4.30;;
49177;SDS011;35016;55.674;37.468;2023-04-24T13:46:58;8.32;;;3.78;;
49177;SDS011;35016;55.674;37.468;2023-04-24T13:49:25;8.05;;;4.07;;
49177;SDS011;35016;55.674;37.468;2023-04-24T13:51:54;8.48;;;4.18;;
49177;SDS011;35016;55.674;37.468;2023-04-24T13:54:21;9.23;;;4.50;;
49177;SDS011;35016;55.674;37.468;2023-04-24T13:56:50;8.60;;;4.22;;
49177;SDS011;35016;55.674;37.468;2023-04-24T13:59:19;8.63;;;4.28;;
49177;SDS011;35016;55.674;37.468;2023-04-24T14:01:47;8.85;;;4.55;;
49177;SDS011;35016;55.674;37.468;2023-04-24T14:04:15;7.38;;;3.90;;
49177;SDS011;35016;55.674;37.468;2023-04-24T14:06:43;8.20;;;3.97;;
49177;SDS011;35016;55.674;37.468;2023-04-24T14:09:10;8.73;;;4.03;;
49177;SDS011;35016;55.674;37.468;2023-04-24T14:11:37;11.63;;;4.85;;
49177;SDS011;35016;55.674;37.468;2023-04-24T14:14:04;8.98;;;4.75;;
49177;SDS011;35016;55.674;37.468;2023-04-24T14:16:32;8.50;;;3.95;;
49177;SDS011;35016;55.674;37.468;2023-04-24T14:18:59;9.80;;;4.22;;
49177;SDS011;35016;55.674;37.468;2023-04-24T14:21:26;9.88;;;3.88;;
49177;SDS011;35016;55.674;37.468;2023-04-24T14:23:53;8.27;;;3.80;;
49177;SDS011;35016;55.674;37.468;2023-04-24T14:26:20;10.07;;;4.30;;
49177;SDS011;35016;55.674;37.468;2023-04-24T14:28:48;7.93;;;4.03;;
49177;SDS011;35016;55.674;37.468;2023-04-24T14:31:16;10.20;;;3.72;;
49177;SDS011;35016;55.674;37.468;2023-04-24T14:33:43;9.32;;;4.95;;
49177;SDS011;35016;55.674;37.468;2023-04-24T14:36:11;11.77;;;4.22;;
49177;SDS011;35016;55.674;37.468;2023-04-24T14:38:38;7.68;;;3.75;;
49177;SDS011;35016;55.674;37.468;2023-04-24T14:41:05;9.98;;;4.20;;
49177;SDS011;35016;55.674;37.468;2023-04-24T14:43:39;11.40;;;4.68;;
49177;SDS011;35016;55.674;37.468;2023-04-24T14:46:06;10.52;;;4.13;;
49177;SDS011;35016;55.674;37.468;2023-04-24T14:48:34;8.90;;;3.90;;
49177;SDS011;35016;55.674;37.468;2023-04-24T14:51:01;9.18;;;4.28;;